Time,TemperatureF,DewpointF,PressureIn,WindDirection,WindDirectionDegrees,WindSpeedMPH,WindSpeedGustMPH,Humidity,HourlyPrecipIn,Conditions,Clouds,dailyrainin,SoftwareType,DateUTC
2013-02-21 00:00:00,10.0,5.0,-100.00,North,0,2.0,4.0,77,0.00,,,0.00,,2013-02-21 06:00:00,
2013-02-21 00:11:00,10.0,5.0,-100.00,NNW,340,2.0,4.0,77,0.00,,,0.00,,2013-02-21 06:11:00,
2013-02-21 00:21:00,10.0,5.0,-100.00,NW,325,3.0,4.0,77,0.00,,,0.00,,2013-02-21 06:21:00,
2013-02-21 00:31:00,9.0,3.0,-100.00,NW,315,2.0,4.0,77,0.00,,,0.00,,2013-02-21 06:31:00,
2013-02-21 00:41:00,9.0,3.0,-100.00,WNW,285,2.0,3.0,78,0.00,,,0.00,,2013-02-21 06:41:00,
2013-02-21 00:51:00,9.0,3.0,-100.00,NW,325,1.0,3.0,78,0.00,,,0.00,,2013-02-21 06:51:00,
2013-02-21 01:01:00,9.0,3.0,-100.00,WNW,295,1.0,2.0,79,0.00,,,0.00,,2013-02-21 07:01:00,
2013-02-21 01:11:00,9.0,3.0,-100.00,WNW,295,1.0,2.0,79,0.00,,,0.00,,2013-02-21 07:11:00,
2013-02-21 01:21:00,8.0,3.0,-100.00,West,260,1.0,2.0,80,0.00,,,0.00,,2013-02-21 07:21:00,
2013-02-21 01:32:00,7.0,1.0,-100.00,West,280,1.0,2.0,80,0.00,,,0.00,,2013-02-21 07:32:00,
2013-02-21 01:42:00,6.0,1.0,-100.00,North,10,1.0,1.0,80,0.00,,,0.00,,2013-02-21 07:42:00,
2013-02-21 01:52:00,6.0,1.0,-100.00,NW,325,1.0,2.0,81,0.00,,,0.00,,2013-02-21 07:52:00,
2013-02-21 02:01:00,6.0,1.0,-100.00,NNW,335,1.0,2.0,81,0.00,,,0.00,,2013-02-21 08:01:00,
2013-02-21 02:11:00,7.0,3.0,-100.00,NNW,345,1.0,2.0,82,0.00,,,0.00,,2013-02-21 08:11:00,
2013-02-21 02:21:00,7.0,3.0,-100.00,North,10,2.0,4.0,83,0.00,,,0.00,,2013-02-21 08:21:00,
2013-02-21 02:32:00,7.0,3.0,-100.00,NW,320,1.0,3.0,83,0.00,,,0.00,,2013-02-21 08:32:00,
2013-02-21 02:41:00,7.0,3.0,-100.00,NNW,335,1.0,2.0,84,0.00,,,0.00,,2013-02-21 08:41:00,
2013-02-21 02:51:00,7.0,3.0,-100.00,North,5,1.0,2.0,84,0.00,,,0.00,,2013-02-21 08:51:00,
2013-02-21 03:01:00,7.0,3.0,-100.00,NNW,335,1.0,2.0,85,0.00,,,0.00,,2013-02-21 09:01:00,
2013-02-21 03:11:00,7.0,3.0,-100.00,NNW,345,2.0,4.0,85,0.00,,,0.00,,2013-02-21 09:11:00,
2013-02-21 03:22:00,7.0,3.0,-100.00,North,0,2.0,4.0,86,0.00,,,0.00,,2013-02-21 09:22:00,
2013-02-21 03:31:00,7.0,3.0,-100.00,North,5,1.0,4.0,86,0.00,,,0.00,,2013-02-21 09:31:00,
2013-02-21 03:41:00,6.0,3.0,-100.00,North,355,2.0,3.0,87,0.00,,,0.00,,2013-02-21 09:41:00,
2013-02-21 03:51:00,6.0,3.0,-100.00,North,350,2.0,4.0,87,0.00,,,0.00,,2013-02-21 09:51:00,
2013-02-21 04:01:00,6.0,3.0,-100.00,NNW,340,1.0,3.0,87,0.00,,,0.00,,2013-02-21 10:01:00,
2013-02-21 04:11:00,6.0,3.0,-100.00,North,5,3.0,4.0,88,0.00,,,0.00,,2013-02-21 10:11:00,
2013-02-21 04:21:00,6.0,3.0,-100.00,North,10,2.0,3.0,88,0.00,,,0.00,,2013-02-21 10:21:00,
2013-02-21 04:31:00,6.0,3.0,-100.00,North,0,1.0,2.0,88,0.00,,,0.00,,2013-02-21 10:31:00,
2013-02-21 04:41:00,6.0,3.0,-100.00,NNE,20,2.0,3.0,88,0.00,,,0.00,,2013-02-21 10:41:00,
2013-02-21 04:51:00,5.0,3.0,-100.00,NNE,20,2.0,3.0,88,0.00,,,0.00,,2013-02-21 10:51:00,
2013-02-21 05:01:00,5.0,3.0,-100.00,North,355,1.0,2.0,89,0.00,,,0.00,,2013-02-21 11:01:00,
2013-02-21 05:11:00,6.0,3.0,-100.00,North,5,3.0,4.0,89,0.00,,,0.00,,2013-02-21 11:11:00,
2013-02-21 05:21:00,6.0,3.0,-100.00,North,0,2.0,4.0,89,0.00,,,0.00,,2013-02-21 11:21:00,
2013-02-21 05:31:00,6.0,3.0,-100.00,North,0,2.0,4.0,90,0.00,,,0.00,,2013-02-21 11:31:00,
2013-02-21 05:41:00,6.0,3.0,-100.00,NNW,335,2.0,6.0,90,0.00,,,0.00,,2013-02-21 11:41:00,
2013-02-21 05:51:00,5.0,3.0,-100.00,WNW,285,2.0,4.0,90,0.00,,,0.00,,2013-02-21 11:51:00,
2013-02-21 06:01:00,6.0,3.0,-100.00,NNW,330,3.0,4.0,90,0.00,,,0.00,,2013-02-21 12:01:00,
2013-02-21 06:11:00,6.0,3.0,-100.00,NNW,345,4.0,6.0,90,0.00,,,0.00,,2013-02-21 12:11:00,
2013-02-21 06:21:00,6.0,3.0,-100.00,North,355,2.0,6.0,90,0.00,,,0.00,,2013-02-21 12:21:00,
2013-02-21 06:32:00,6.0,5.0,-100.00,NNE,25,5.0,11.0,91,0.00,,,0.00,,2013-02-21 12:32:00,
2013-02-21 06:42:00,7.0,5.0,-100.00,NE,50,6.0,10.0,91,0.00,,,0.00,,2013-02-21 12:42:00,
2013-02-21 06:52:00,8.0,5.0,-100.00,East,90,3.0,10.0,90,0.00,,,0.00,,2013-02-21 12:52:00,
2013-02-21 07:01:00,8.0,5.0,-100.00,South,170,4.0,9.0,90,0.00,,,0.00,,2013-02-21 13:01:00,
2013-02-21 07:12:00,8.0,5.0,-100.00,SSE,160,6.0,9.0,90,0.00,,,0.00,,2013-02-21 13:12:00,
2013-02-21 07:22:00,8.0,7.0,-100.00,SSE,150,6.0,9.0,90,0.00,,,0.00,,2013-02-21 13:22:00,
2013-02-21 07:32:00,8.0,5.0,-100.00,ESE,110,3.0,6.0,89,0.00,,,0.00,,2013-02-21 13:32:00,
2013-02-21 07:41:00,8.0,5.0,-100.00,ESE,105,3.0,6.0,89,0.00,,,0.00,,2013-02-21 13:41:00,
2013-02-21 07:51:00,8.0,7.0,-100.00,ENE,65,2.0,4.0,89,0.00,,,0.00,,2013-02-21 13:51:00,
2013-02-21 08:02:00,8.0,7.0,-100.00,ENE,65,2.0,6.0,89,0.00,,,0.00,,2013-02-21 14:02:00,
2013-02-21 08:11:00,9.0,7.0,-100.00,East,95,2.0,4.0,89,0.00,,,0.00,,2013-02-21 14:11:00,
2013-02-21 08:21:00,10.0,7.0,-100.00,NE,45,2.0,3.0,88,0.00,,,0.00,,2013-02-21 14:21:00,
2013-02-21 08:32:00,10.0,7.0,-100.00,NNE,30,2.0,4.0,88,0.00,,,0.00,,2013-02-21 14:32:00,
2013-02-21 08:41:00,10.0,7.0,-100.00,NE,55,2.0,5.0,87,0.00,,,0.00,,2013-02-21 14:41:00,
2013-02-21 08:52:00,11.0,9.0,-100.00,East,85,2.0,5.0,85,0.00,,,0.00,,2013-02-21 14:52:00,
2013-02-21 09:01:00,11.0,9.0,-100.00,East,85,2.0,5.0,85,0.00,,,0.00,,2013-02-21 15:01:00,
2013-02-21 09:12:00,11.0,7.0,-100.00,NE,35,2.0,5.0,83,0.00,,,0.00,,2013-02-21 15:12:00,
2013-02-21 09:21:00,12.0,7.0,-100.00,North,10,3.0,6.0,81,0.00,,,0.00,,2013-02-21 15:21:00,
2013-02-21 09:32:00,13.0,7.0,-100.00,East,100,2.0,6.0,79,0.00,,,0.00,,2013-02-21 15:32:00,
2013-02-21 09:42:00,14.0,9.0,-100.00,NE,45,3.0,6.0,77,0.00,,,0.00,,2013-02-21 15:42:00,
2013-02-21 09:51:00,15.0,9.0,-100.00,East,90,3.0,9.0,74,0.00,,,0.00,,2013-02-21 15:51:00,
2013-02-21 10:01:00,15.0,9.0,-100.00,ENE,60,6.0,9.0,71,0.00,,,0.00,,2013-02-21 16:01:00,
2013-02-21 10:12:00,16.0,9.0,-100.00,East,80,6.0,12.0,70,0.00,,,0.00,,2013-02-21 16:12:00,
2013-02-21 10:21:00,17.0,9.0,-100.00,ESE,110,3.0,9.0,68,0.00,,,0.00,,2013-02-21 16:21:00,
2013-02-21 10:32:00,18.0,9.0,-100.00,ENE,75,4.0,9.0,66,0.00,,,0.00,,2013-02-21 16:32:00,
2013-02-21 10:42:00,18.0,9.0,-100.00,East,100,4.0,9.0,66,0.00,,,0.00,,2013-02-21 16:42:00,
2013-02-21 10:52:00,18.0,9.0,-100.00,ESE,110,4.0,10.0,65,0.00,,,0.00,,2013-02-21 16:52:00,
2013-02-21 11:11:00,18.0,9.0,-100.00,NE,50,5.0,9.0,63,0.00,,,0.00,,2013-02-21 17:11:00,
2013-02-21 11:21:00,19.0,9.0,-100.00,SE,145,5.0,7.0,62,0.00,,,0.00,,2013-02-21 17:21:00,
2013-02-21 11:32:00,20.0,9.0,-100.00,ENE,75,4.0,7.0,61,0.00,,,0.00,,2013-02-21 17:32:00,
2013-02-21 11:42:00,20.0,9.0,-100.00,ENE,65,4.0,6.0,60,0.00,,,0.00,,2013-02-21 17:42:00,
2013-02-21 11:52:00,21.0,9.0,-100.00,ENE,75,4.0,7.0,59,0.00,,,0.00,,2013-02-21 17:52:00,
2013-02-21 12:02:00,21.0,9.0,-100.00,ESE,110,4.0,7.0,58,0.00,,,0.00,,2013-02-21 18:02:00,
2013-02-21 12:11:00,22.0,9.0,-100.00,ENE,60,3.0,6.0,56,0.00,,,0.00,,2013-02-21 18:11:00,
2013-02-21 12:22:00,21.0,9.0,-100.00,NE,40,6.0,9.0,55,0.00,,,0.00,,2013-02-21 18:22:00,
2013-02-21 12:31:00,21.0,9.0,-100.00,ENE,65,4.0,9.0,56,0.00,,,0.00,,2013-02-21 18:31:00,
2013-02-21 12:42:00,22.0,9.0,-100.00,North,10,4.0,7.0,55,0.00,,,0.00,,2013-02-21 18:42:00,
2013-02-21 12:51:00,22.0,9.0,-100.00,NE,45,4.0,7.0,56,0.00,,,0.00,,2013-02-21 18:51:00,
2013-02-21 13:01:00,21.0,9.0,-100.00,North,10,5.0,9.0,58,0.00,,,0.00,,2013-02-21 19:01:00,
2013-02-21 13:12:00,20.0,9.0,-100.00,NE,40,6.0,11.0,58,0.00,,,0.00,,2013-02-21 19:12:00,
2013-02-21 13:21:00,22.0,9.0,-100.00,ENE,75,4.0,9.0,57,0.00,,,0.00,,2013-02-21 19:21:00,
2013-02-21 13:31:00,22.0,9.0,-100.00,East,85,5.0,9.0,56,0.00,,,0.00,,2013-02-21 19:31:00,
2013-02-21 13:41:00,23.0,9.0,-100.00,East,90,6.0,11.0,56,0.00,,,0.00,,2013-02-21 19:41:00,
2013-02-21 13:51:00,23.0,10.0,-100.00,ENE,75,5.0,9.0,55,0.00,,,0.00,,2013-02-21 19:51:00,
2013-02-21 14:01:00,24.0,10.0,-100.00,ESE,105,4.0,9.0,54,0.00,,,0.00,,2013-02-21 20:01:00,
2013-02-21 14:11:00,23.0,10.0,-100.00,NE,45,6.0,10.0,57,0.00,,,0.00,,2013-02-21 20:11:00,
2013-02-21 14:21:00,23.0,10.0,-100.00,NE,50,5.0,9.0,56,0.00,,,0.00,,2013-02-21 20:21:00,
2013-02-21 14:32:00,22.0,9.0,-100.00,North,0,4.0,10.0,57,0.00,,,0.00,,2013-02-21 20:32:00,
2013-02-21 14:41:00,22.0,10.0,-100.00,ENE,65,4.0,10.0,58,0.00,,,0.00,,2013-02-21 20:41:00,
2013-02-21 14:52:00,23.0,10.0,-100.00,ENE,70,5.0,11.0,58,0.00,,,0.00,,2013-02-21 20:52:00,
2013-02-21 15:02:00,23.0,10.0,-100.00,East,90,4.0,12.0,59,0.00,,,0.00,,2013-02-21 21:02:00,
2013-02-21 15:11:00,23.0,10.0,-100.00,East,85,7.0,12.0,58,0.00,,,0.00,,2013-02-21 21:11:00,
2013-02-21 15:21:00,23.0,10.0,-100.00,NNE,15,6.0,9.0,59,0.00,,,0.00,,2013-02-21 21:21:00,
2013-02-21 15:31:00,24.0,10.0,-100.00,NE,35,4.0,9.0,59,0.00,,,0.00,,2013-02-21 21:31:00,
2013-02-21 15:42:00,24.0,12.0,-100.00,ENE,75,5.0,11.0,58,0.00,,,0.00,,2013-02-21 21:42:00,
2013-02-21 15:51:00,24.0,10.0,-100.00,ENE,65,6.0,12.0,57,0.00,,,0.00,,2013-02-21 21:51:00,
2013-02-21 16:01:00,23.0,10.0,-100.00,NE,50,4.0,12.0,57,0.00,,,0.00,,2013-02-21 22:01:00,
2013-02-21 16:11:00,23.0,10.0,-100.00,NE,50,7.0,12.0,58,0.00,,,0.00,,2013-02-21 22:11:00,
2013-02-21 16:21:00,23.0,10.0,-100.00,ENE,65,7.0,13.0,58,0.00,,,0.00,,2013-02-21 22:21:00,
2013-02-21 16:31:00,23.0,10.0,-100.00,ENE,70,4.0,11.0,59,0.00,,,0.00,,2013-02-21 22:31:00,
2013-02-21 16:41:00,23.0,10.0,-100.00,NNE,15,7.0,13.0,59,0.00,,,0.00,,2013-02-21 22:41:00,
2013-02-21 16:52:00,22.0,10.0,-100.00,NE,50,8.0,15.0,59,0.00,,,0.00,,2013-02-21 22:52:00,
2013-02-21 17:01:00,22.0,10.0,-100.00,NE,45,7.0,16.0,59,0.00,,,0.00,,2013-02-21 23:01:00,
2013-02-21 17:11:00,22.0,10.0,-100.00,NNE,25,4.0,12.0,60,0.00,,,0.00,,2013-02-21 23:11:00,
2013-02-21 17:21:00,22.0,10.0,-100.00,NNE,25,4.0,12.0,60,0.00,,,0.00,,2013-02-21 23:21:00,
2013-02-21 17:31:00,22.0,10.0,-100.00,NE,55,7.0,12.0,61,0.00,,,0.00,,2013-02-21 23:31:00,
2013-02-21 17:41:00,22.0,10.0,-100.00,NE,40,6.0,17.0,62,0.00,,,0.00,,2013-02-21 23:41:00,
2013-02-21 17:52:00,22.0,10.0,-100.00,NNE,20,4.0,9.0,62,0.00,,,0.00,,2013-02-21 23:52:00,
2013-02-21 18:01:00,21.0,10.0,-100.00,ENE,60,2.0,7.0,63,0.00,,,0.00,,2013-02-22 00:01:00,
2013-02-21 18:11:00,21.0,10.0,-100.00,ENE,60,4.0,7.0,63,0.00,,,0.00,,2013-02-22 00:11:00,
2013-02-21 18:21:00,21.0,10.0,-100.00,NE,40,2.0,7.0,64,0.00,,,0.00,,2013-02-22 00:21:00,
2013-02-21 18:32:00,21.0,10.0,-100.00,NE,55,4.0,9.0,64,0.00,,,0.00,,2013-02-22 00:32:00,
2013-02-21 18:41:00,22.0,12.0,-100.00,NE,35,4.0,10.0,64,0.00,,,0.00,,2013-02-22 00:41:00,
2013-02-21 18:51:00,22.0,12.0,-100.00,NE,50,4.0,7.0,64,0.00,,,0.00,,2013-02-22 00:51:00,
2013-02-21 19:01:00,22.0,12.0,-100.00,NE,40,4.0,12.0,64,0.00,,,0.00,,2013-02-22 01:01:00,
2013-02-21 19:11:00,22.0,12.0,-100.00,NNE,15,4.0,9.0,64,0.00,,,0.00,,2013-02-22 01:11:00,
2013-02-21 19:21:00,22.0,12.0,-100.00,NNE,15,4.0,9.0,64,0.00,,,0.00,,2013-02-22 01:21:00,
2013-02-21 19:32:00,22.0,12.0,-100.00,North,10,4.0,6.0,64,0.00,,,0.00,,2013-02-22 01:32:00,
2013-02-21 19:42:00,22.0,12.0,-100.00,NNE,15,2.0,7.0,65,0.00,,,0.00,,2013-02-22 01:42:00,
2013-02-21 19:51:00,22.0,12.0,-100.00,NNE,15,3.0,6.0,65,0.00,,,0.00,,2013-02-22 01:51:00,
2013-02-21 20:02:00,22.0,12.0,-100.00,NNE,25,3.0,6.0,65,0.00,,,0.00,,2013-02-22 02:02:00,
2013-02-21 20:11:00,22.0,12.0,-100.00,ENE,60,2.0,6.0,65,0.00,,,0.00,,2013-02-22 02:11:00,
2013-02-21 20:21:00,22.0,12.0,-100.00,NE,55,2.0,5.0,65,0.00,,,0.00,,2013-02-22 02:21:00,
2013-02-21 20:31:00,22.0,12.0,-100.00,East,80,2.0,4.0,66,0.00,,,0.00,,2013-02-22 02:31:00,
2013-02-21 20:42:00,22.0,12.0,-100.00,ENE,75,1.0,4.0,66,0.00,,,0.00,,2013-02-22 02:42:00,
2013-02-21 20:52:00,22.0,12.0,-100.00,ESE,120,1.0,3.0,66,0.00,,,0.00,,2013-02-22 02:52:00,
2013-02-21 21:01:00,22.0,12.0,-100.00,SSE,150,2.0,3.0,67,0.00,,,0.00,,2013-02-22 03:01:00,
2013-02-21 21:11:00,22.0,12.0,-100.00,SE,145,4.0,4.0,67,0.00,,,0.00,,2013-02-22 03:11:00,
2013-02-21 21:21:00,22.0,12.0,-100.00,SE,145,4.0,4.0,67,0.00,,,0.00,,2013-02-22 03:21:00,
2013-02-21 21:32:00,22.0,12.0,-100.00,NNW,345,0.0,2.0,67,0.00,,,0.00,,2013-02-22 03:32:00,
2013-02-21 21:41:00,21.0,12.0,-100.00,NE,45,1.0,1.0,68,0.00,,,0.00,,2013-02-22 03:41:00,
2013-02-21 21:51:00,21.0,12.0,-100.00,NNE,20,1.0,2.0,69,0.00,,,0.00,,2013-02-22 03:51:00,
2013-02-21 22:01:00,21.0,12.0,-100.00,NE,45,1.0,1.0,69,0.00,,,0.00,,2013-02-22 04:01:00,
2013-02-21 22:11:00,21.0,12.0,-100.00,East,80,1.0,2.0,69,0.00,,,0.00,,2013-02-22 04:11:00,
2013-02-21 22:21:00,21.0,12.0,-100.00,East,85,1.0,2.0,70,0.00,,,0.00,,2013-02-22 04:21:00,
2013-02-21 22:32:00,21.0,14.0,-100.00,ENE,70,1.0,2.0,70,0.00,,,0.00,,2013-02-22 04:32:00,
2013-02-21 22:42:00,21.0,14.0,-100.00,ENE,60,2.0,3.0,70,0.00,,,0.00,,2013-02-22 04:42:00,
2013-02-21 22:51:00,22.0,14.0,-100.00,NNE,30,3.0,6.0,70,0.00,,,0.00,,2013-02-22 04:51:00,
2013-02-21 23:01:00,22.0,14.0,-100.00,NNE,30,2.0,6.0,69,0.00,,,0.00,,2013-02-22 05:01:00,
2013-02-21 23:12:00,22.0,14.0,-100.00,NE,50,2.0,6.0,69,0.00,,,0.00,,2013-02-22 05:12:00,
2013-02-21 23:22:00,22.0,12.0,-100.00,ENE,75,3.0,7.0,68,0.00,,,0.00,,2013-02-22 05:22:00,
2013-02-21 23:32:00,22.0,12.0,-100.00,NE,55,5.0,9.0,68,0.00,,,0.00,,2013-02-22 05:32:00,
2013-02-21 23:41:00,22.0,12.0,-100.00,ENE,75,4.0,7.0,67,0.00,,,0.00,,2013-02-22 05:41:00,
2013-02-21 23:52:00,22.0,12.0,-100.00,ENE,70,4.0,7.0,67,0.00,,,0.00,,2013-02-22 05:52:00,